Startpagina
METAR-TAF:

METAR-TAF

Vliegvelden :

Internationale luchthaven Koning Abdoel Aziz

Djedda, Saoedi-Arabië

breedte: 21-42N, lengte: 039-11E, hoogte: 15 m

Actueel weer

Dit bericht is 1 uur en het 5 minuten geleden gemaakt, om 21:00 UTC
Wind 6 kt uit het noordnoordwesten
Temperatuur 32°C
Vochtigheid 49%
Druk 1004 hPa
Zicht 10 km of meer
geen wolken onder 1500 m en geen cumulonimbus

METAR: OEJN 202100Z 34006KT CAVOK 32/20 Q1004 NOSIG

Tijdstip: 01:05 (22:05 UTC)

Verwachting

Dit bericht is 5 uur en het 5 minuten geleden gemaakt, om 17:00 UTC
Verwachting geldig van 20 om 18 UTC tot 21 om 24 UTC
Wind 12 kt uit het noorden
Zicht 10 km of meer
geen wolken onder 1500 m en geen cumulonimbus
Wijzigt naar
van 20 om 21 UTC tot 20 om 23 UTC
Wind 8 kt uit het noordnoordoosten

TAF: OEJN 201700Z 2018/2124 36012KT CAVOK BECMG 2021/2023 03008KT

Waarnemingen en weersverwachtingen van meer dan 4000 vliegvelden (METAR en TAF).

De beschikbare stations zijn de gele en rode punten op de kaart.

Ga met uw muis naar het station om de naam te zien.

Klik dan om waarnemingen en weersverwachtingen te zien.

kaart wijzigen: klik op de groene knoppen met een zwart kruis om in te zoomen, op de groene knop met een streepje om uit te zoomen of op de groene pijlen voor aangrenzende kaarten.


METAR-TAF: